Terminal Aerodrome Forecast
Issued by NWS

Current Version | Previous Version | Text Only | Print | Product List | Glossary On
Versions: 1 2 3 4 5 6 7 8 9 10 11 12 13 14
757
FTUS41 KCAR 242323 CCA
TAFPQI
TAF COR
KPQI 242323Z 2500/2524 24004KT P6SM SCT120 OVC200
     FM251500 18006KT P6SM OVC100
     FM252200 17007KT P6SM VCSH OVC050=

USA.gov is the U.S. government's official web portal to all federal, state and local government web resources and services.